Terminal Aerodrome Forecast
Issued by NWS

Home | Current Version | Previous Version | Text Only | Print | Product List | Glossary On
Versions: 1 2 3 4 5 6 7 8 9 10 11 12 13 14 15 16 17
000
FTUS46 KSEW 292300
TAFHQM
TAF
KHQM 292326Z 3000/3024 24012KT P6SM SKC
     FM300400 27006KT P6SM OVC004
     FM301100 27004KT 2SM BR OVC002
     FM301700 25010KT P6SM BKN008
     FM301900 26014KT P6SM SKC=

USA.gov is the U.S. government's official web portal to all federal, state and local government web resources and services.